createdAt,value
2018-11-20T00:02:52.496Z,12.23
2018-11-20T00:06:03.357Z,13.43
2018-11-20T00:09:10.229Z,13.67
2018-11-20T00:12:17.972Z,13.30
2018-11-20T00:15:25.455Z,12.30
2018-11-20T00:18:35.484Z,13.00
2018-11-20T00:21:42.537Z,14.53
2018-11-20T00:24:55.819Z,11.63
2018-11-20T00:28:08.794Z,12.30
2018-11-20T00:31:14.869Z,13.10
2018-11-20T00:34:31.054Z,12.47
2018-11-20T00:37:36.525Z,12.87
2018-11-20T00:40:42.856Z,14.40
2018-11-20T00:43:46.934Z,11.77
2018-11-20T00:46:47.882Z,13.90
2018-11-20T00:50:01.762Z,14.40
2018-11-20T00:53:08.387Z,14.20
2018-11-20T00:57:07.939Z,16.10
2018-11-20T01:00:07.670Z,17.17
2018-11-20T01:03:27.276Z,18.73
2018-11-20T01:06:53.202Z,17.17
2018-11-20T01:09:56.683Z,20.00
2018-11-20T01:13:16.501Z,19.13
2018-11-20T01:16:39.428Z,21.00
2018-11-20T01:19:58.705Z,25.03
2018-11-20T01:23:06.367Z,20.73
2018-11-20T01:26:12.643Z,20.83
2018-11-20T01:29:14.888Z,23.10
2018-11-20T01:32:40.048Z,21.83
2018-11-20T01:35:45.907Z,23.93
2018-11-20T01:38:51.822Z,26.23
2018-11-20T01:41:59.458Z,25.37
2018-11-20T01:45:05.552Z,22.27
2018-11-20T01:48:11.701Z,24.80
2018-11-20T01:51:22.198Z,24.60
2018-11-20T01:54:41.554Z,22.83
2018-11-20T01:57:47.208Z,23.10
2018-11-20T02:01:01.356Z,25.33
2018-11-20T02:04:27.472Z,27.47
2018-11-20T02:07:43.125Z,21.73
2018-11-20T02:11:05.676Z,27.17
2018-11-20T02:14:33.458Z,26.40
2018-11-20T02:17:38.159Z,28.70
2018-11-20T02:21:03.722Z,27.17
2018-11-20T02:24:17.210Z,26.30
2018-11-20T02:27:27.788Z,30.20
2018-11-20T02:30:46.222Z,24.90
2018-11-20T02:34:02.277Z,31.17
2018-11-20T02:37:15.971Z,30.33
2018-11-20T02:40:29.375Z,26.80
2018-11-20T02:43:30.894Z,27.00
2018-11-20T02:46:37.617Z,27.37
2018-11-20T02:49:54.216Z,30.50
2018-11-20T02:53:04.436Z,27.40
2018-11-20T02:56:18.796Z,28.50
2018-11-20T02:59:24.721Z,28.50
2018-11-20T03:02:27.761Z,31.20
2018-11-20T03:05:38.271Z,29.47
2018-11-20T03:08:35.531Z,26.20
2018-11-20T03:11:48.808Z,27.73
2018-11-20T03:15:02.354Z,31.60
2018-11-20T03:18:22.177Z,28.40
2018-11-20T03:21:28.413Z,31.57
2018-11-20T03:24:34.449Z,29.73
2018-11-20T03:28:00.435Z,31.60
2018-11-20T03:31:03.854Z,31.10
2018-11-20T03:34:01.762Z,29.23
2018-11-20T03:37:09.390Z,29.57
2018-11-20T03:40:26.358Z,28.43
2018-11-20T03:43:34.886Z,30.37
2018-11-20T03:46:51.980Z,31.40
2018-11-20T03:50:10.254Z,31.33
2018-11-20T03:53:24.219Z,28.00
2018-11-20T03:56:30.427Z,31.13
2018-11-20T03:59:50.174Z,31.07
2018-11-20T04:02:59.446Z,30.93
2018-11-20T04:06:09.571Z,32.33
2018-11-20T04:09:15.683Z,28.43
2018-11-20T04:12:21.525Z,28.47
2018-11-20T04:15:27.522Z,33.47
2018-11-20T04:18:49.793Z,29.57
2018-11-20T04:22:06.440Z,29.13
2018-11-20T04:25:14.120Z,26.27
2018-11-20T04:28:16.484Z,30.47
2018-11-20T04:31:47.921Z,30.50
2018-11-20T04:34:55.605Z,26.57
2018-11-20T04:38:02.141Z,29.13
2018-11-20T04:41:15.788Z,29.20
2018-11-20T04:44:23.457Z,29.77
2018-11-20T04:47:29.170Z,30.80
2018-11-20T04:50:30.433Z,26.30
2018-11-20T04:53:41.459Z,29.67
2018-11-20T04:56:41.869Z,26.00
2018-11-20T04:59:49.930Z,23.60
2018-11-20T05:03:00.566Z,27.53
2018-11-20T05:06:13.660Z,26.60
2018-11-20T05:09:33.555Z,26.30
2018-11-20T05:12:36.055Z,27.50
2018-11-20T05:15:48.311Z,23.97
2018-11-20T05:18:55.767Z,25.90
2018-11-20T05:22:03.140Z,22.70
2018-11-20T05:25:11.733Z,23.60
2018-11-20T05:28:16.116Z,25.90
2018-11-20T05:31:16.187Z,23.90
2018-11-20T05:34:32.644Z,26.70
2018-11-20T05:37:39.216Z,24.90
2018-11-20T05:40:40.820Z,24.60
2018-11-20T05:43:50.272Z,26.63
2018-11-20T05:47:07.253Z,26.70
2018-11-20T05:50:17.656Z,26.07
2018-11-20T05:53:31.205Z,22.03
2018-11-20T05:56:37.950Z,23.60
2018-11-20T05:59:54.506Z,22.30
2018-11-20T06:03:07.836Z,24.83
2018-11-20T06:06:09.702Z,24.90
2018-11-20T06:09:08.699Z,22.53
2018-11-20T06:12:14.759Z,24.30
2018-11-20T06:15:21.829Z,28.50
2018-11-20T06:18:24.209Z,28.00
2018-11-20T06:21:47.084Z,24.87
2018-11-20T06:24:52.602Z,24.07
2018-11-20T06:27:59.430Z,28.63
2018-11-20T06:31:08.223Z,25.50
2018-11-20T06:34:14.976Z,22.23
2018-11-20T06:37:28.856Z,26.73
2018-11-20T06:40:29.460Z,29.63
2018-11-20T06:43:43.630Z,27.57
2018-11-20T06:46:54.438Z,29.70
2018-11-20T06:50:06.068Z,29.03
2018-11-20T06:53:06.234Z,28.73
2018-11-20T06:56:12.547Z,26.40
2018-11-20T06:59:26.740Z,27.40
2018-11-20T07:02:25.738Z,25.80
2018-11-20T07:05:36.052Z,26.27
2018-11-20T07:08:43.831Z,28.40
2018-11-20T07:12:03.917Z,29.83
2018-11-20T07:15:07.464Z,32.07
2018-11-20T07:18:15.374Z,27.83
2018-11-20T07:21:32.062Z,30.83
2018-11-20T07:24:46.069Z,27.87
2018-11-20T07:27:52.700Z,26.30
2018-11-20T07:31:15.594Z,26.63
2018-11-20T07:34:23.304Z,30.37
2018-11-20T07:37:31.235Z,28.60
2018-11-20T07:40:38.061Z,27.60
2018-11-20T07:43:43.251Z,26.10
2018-11-20T07:46:56.772Z,32.40
2018-11-20T07:50:11.620Z,31.60
2018-11-20T07:53:25.197Z,30.67
2018-11-20T07:56:31.658Z,28.40
2018-11-20T07:59:38.285Z,28.73
2018-11-20T08:02:49.904Z,31.17
2018-11-20T08:05:56.431Z,29.80
2018-11-20T08:09:06.678Z,31.00
2018-11-20T08:12:04.959Z,28.07
2018-11-20T08:15:30.757Z,25.40
2018-11-20T08:18:37.229Z,31.57
2018-11-20T08:21:45.157Z,29.73
2018-11-20T08:24:52.008Z,29.33
2018-11-20T08:27:50.993Z,32.87
2018-11-20T08:31:06.624Z,29.80
2018-11-20T08:34:20.562Z,29.97
2018-11-20T08:37:29.789Z,29.23
2018-11-20T08:40:52.140Z,29.23
2018-11-20T08:44:14.621Z,28.67
2018-11-20T08:47:40.853Z,26.13
2018-11-20T08:50:47.098Z,29.10
2018-11-20T08:53:51.931Z,25.03
2018-11-20T08:56:58.927Z,29.73
2018-11-20T08:59:57.176Z,27.90
2018-11-20T09:03:03.870Z,28.23
2018-11-20T09:06:10.187Z,43.43
2018-11-20T09:09:16.322Z,33.67
2018-11-20T09:12:16.825Z,31.13
2018-11-20T09:15:25.514Z,29.97
2018-11-20T09:18:40.871Z,30.70
2018-11-20T09:22:03.233Z,33.13
2018-11-20T09:25:13.626Z,33.63
2018-11-20T09:28:17.382Z,28.57
2018-11-20T09:31:25.064Z,33.13
2018-11-20T09:34:32.886Z,29.77
2018-11-20T09:37:42.581Z,35.43
2018-11-20T09:41:15.982Z,30.27
2018-11-20T09:44:33.187Z,31.93
2018-11-20T09:47:53.446Z,29.23
2018-11-20T09:51:10.837Z,29.83
2018-11-20T09:54:33.084Z,29.53
2018-11-20T09:57:39.520Z,28.50
2018-11-20T10:00:53.170Z,28.27
2018-11-20T10:04:03.683Z,30.50
2018-11-20T10:10:17.989Z,27.17
2018-11-20T10:13:16.727Z,28.40
2018-11-20T12:21:57.646Z,25.07
2018-11-20T12:28:43.292Z,30.33
2018-11-20T13:05:33.548Z,32.90
2018-11-20T13:08:49.849Z,30.23
2018-11-20T14:32:06.822Z,32.70
2018-11-20T14:35:20.804Z,39.97
2018-11-20T14:38:27.417Z,35.33
2018-11-20T14:41:33.757Z,37.20
2018-11-20T14:45:06.236Z,37.37
2018-11-20T14:48:12.160Z,35.60
2018-11-20T14:51:10.626Z,33.40
2018-11-20T14:54:24.226Z,37.30
2018-11-20T14:57:21.050Z,35.23
2018-11-20T15:00:27.264Z,35.70
2018-11-20T15:03:35.555Z,35.17
2018-11-20T15:06:49.365Z,33.37
2018-11-20T15:10:00.030Z,36.10
2018-11-20T15:13:22.462Z,37.60
2018-11-20T15:16:43.154Z,37.27
2018-11-20T15:20:00.303Z,35.07
2018-11-20T15:23:06.052Z,34.20
2018-11-20T15:26:08.219Z,34.43
2018-11-20T15:29:22.131Z,37.80
2018-11-20T15:32:45.487Z,35.23
2018-11-20T15:35:51.863Z,32.27
2018-11-20T15:38:53.562Z,33.60
2018-11-20T15:42:06.584Z,30.70
2018-11-20T15:45:09.809Z,32.53
2018-11-20T15:48:27.594Z,30.40
2018-11-20T15:51:38.440Z,25.83
2018-11-20T15:54:49.529Z,28.13
2018-11-20T15:57:56.015Z,25.97
2018-11-20T16:01:02.102Z,26.63
2018-11-20T16:04:24.980Z,25.20
2018-11-20T16:07:41.193Z,23.80
2018-11-20T16:11:03.628Z,25.87
2018-11-20T16:14:26.053Z,24.20
2018-11-20T16:17:39.503Z,22.00
2018-11-20T16:20:46.042Z,26.37
2018-11-20T16:23:54.157Z,20.53
2018-11-20T16:27:07.661Z,17.87
2018-11-20T16:30:15.351Z,15.03
2018-11-20T16:33:21.635Z,15.47
2018-11-20T16:36:31.848Z,14.40
2018-11-20T16:39:38.597Z,13.27
2018-11-20T16:42:52.869Z,13.60
2018-11-20T16:45:40.689Z,14.43
2018-11-20T16:48:54.350Z,15.33
2018-11-20T16:52:10.652Z,14.67
2018-11-20T16:55:15.297Z,11.37
2018-11-20T16:58:35.241Z,11.50
2018-11-20T17:01:51.684Z,11.83
2018-11-20T17:04:58.360Z,10.90
2018-11-20T17:08:21.297Z,14.20
2018-11-20T17:11:29.005Z,11.17
2018-11-20T17:14:51.761Z,11.87
2018-11-20T17:18:04.097Z,10.50
2018-11-20T17:21:14.205Z,10.73
2018-11-20T17:24:36.655Z,10.70
2018-11-20T17:27:57.683Z,13.20
2018-11-20T17:31:03.620Z,11.20
2018-11-20T17:34:10.015Z,9.93
2018-11-20T17:37:23.814Z,11.93
2018-11-20T17:40:31.809Z,10.90
2018-11-20T17:43:38.315Z,11.53
2018-11-20T17:46:44.301Z,11.50
2018-11-20T17:49:46.611Z,12.77
2018-11-20T17:52:52.967Z,15.67
2018-11-20T17:56:09.748Z,11.83
2018-11-20T17:59:17.175Z,11.50
2018-11-20T18:02:27.985Z,13.60
2018-11-20T18:05:16.011Z,15.63
2018-11-20T18:08:26.538Z,12.13
2018-11-20T18:13:17.866Z,15.93
2018-11-20T18:16:44.942Z,13.10
2018-11-20T18:19:55.027Z,14.30
2018-11-20T18:22:58.647Z,13.37
2018-11-20T18:26:20.477Z,13.80
2018-11-20T18:29:27.754Z,14.70
2018-11-20T18:32:33.349Z,13.80
2018-11-20T18:35:43.202Z,15.33
2018-11-20T18:38:55.776Z,14.70
2018-11-20T18:42:20.825Z,15.10
2018-11-20T18:45:37.720Z,17.20
2018-11-20T18:48:24.390Z,16.37
2018-11-20T18:51:23.655Z,15.60
2018-11-20T18:54:37.087Z,16.27
2018-11-20T18:57:44.190Z,17.10
2018-11-20T19:01:04.719Z,16.20
2018-11-20T19:04:07.927Z,15.53
2018-11-20T19:07:19.253Z,16.90
2018-11-20T19:10:30.284Z,15.80
2018-11-20T19:13:40.436Z,17.80
2018-11-20T19:16:46.326Z,17.73
2018-11-20T19:19:51.931Z,17.73
2018-11-20T19:23:01.910Z,18.03
2018-11-20T19:26:16.723Z,16.87
2018-11-20T19:29:35.898Z,18.47
2018-11-20T19:32:40.105Z,19.40
2018-11-20T19:35:56.110Z,18.67
2018-11-20T19:39:03.167Z,21.00
2018-11-20T19:42:09.223Z,21.50
2018-11-20T19:45:14.960Z,22.57
2018-11-20T19:48:41.689Z,21.00
2018-11-20T19:52:04.112Z,20.23
2018-11-20T19:55:18.755Z,19.53
2018-11-20T19:58:20.734Z,19.90
2018-11-20T20:01:26.898Z,18.90
2018-11-20T20:04:43.447Z,21.80
2018-11-20T20:08:03.029Z,20.90
2018-11-20T20:11:49.544Z,21.83
2018-11-20T20:15:06.056Z,21.60
2018-11-20T20:18:06.810Z,19.90
2018-11-20T20:21:29.529Z,20.10
2018-11-20T20:24:37.209Z,18.90
2018-11-20T20:28:02.508Z,21.67
2018-11-20T20:31:16.970Z,22.93
2018-11-20T20:34:22.814Z,19.93
2018-11-20T20:37:28.524Z,22.00
2018-11-20T20:40:34.019Z,21.40
2018-11-20T20:43:39.338Z,21.53
2018-11-20T20:46:46.693Z,22.70
2018-11-20T20:50:11.589Z,24.47
2018-11-20T20:53:17.466Z,23.50
2018-11-20T20:56:26.905Z,23.60
2018-11-20T20:59:40.270Z,21.10
2018-11-20T21:02:45.559Z,24.73
2018-11-20T21:06:01.701Z,24.87
2018-11-20T21:09:06.769Z,23.83
2018-11-20T21:12:31.872Z,23.03
2018-11-20T21:15:53.999Z,27.47
2018-11-20T21:19:01.181Z,23.63
2018-11-20T21:22:00.482Z,24.30
2018-11-20T21:25:07.940Z,24.97
2018-11-20T21:28:05.307Z,23.13
2018-11-20T21:31:13.740Z,23.43
2018-11-20T21:34:17.081Z,26.03
2018-11-20T21:37:22.907Z,23.63
2018-11-20T21:40:28.686Z,22.50
2018-11-20T21:43:34.284Z,24.20
2018-11-20T21:46:56.556Z,25.20
2018-11-20T21:50:01.928Z,23.87
2018-11-20T21:53:09.276Z,26.67
2018-11-20T21:56:25.901Z,22.97
2018-11-20T21:59:40.666Z,22.93
2018-11-20T22:02:46.052Z,27.07
2018-11-20T22:06:01.953Z,24.60
2018-11-20T22:09:04.566Z,23.10
2018-11-20T22:12:06.160Z,24.83
2018-11-20T22:15:12.967Z,24.20
2018-11-20T22:18:28.741Z,23.83
2018-11-20T22:21:38.931Z,25.43
2018-11-20T22:24:59.898Z,24.70
2018-11-20T22:28:05.524Z,26.13
2018-11-20T22:31:24.415Z,23.57
2018-11-20T22:34:40.509Z,24.07
2018-11-20T22:37:52.155Z,26.13
2018-11-20T22:40:57.969Z,23.43
2018-11-20T22:44:03.703Z,29.60
2018-11-20T22:47:10.107Z,26.37
2018-11-20T22:50:17.205Z,25.23
2018-11-20T22:53:15.629Z,24.87
2018-11-20T22:56:31.618Z,26.43
2018-11-20T22:59:29.387Z,24.07
2018-11-20T23:02:36.109Z,23.73
2018-11-20T23:05:47.755Z,25.30
2018-11-20T23:08:35.801Z,25.50
2018-11-20T23:11:23.729Z,22.90
2018-11-20T23:14:11.909Z,23.83
2018-11-20T23:17:00.218Z,22.63
2018-11-20T23:19:48.555Z,23.90
2018-11-20T23:22:36.229Z,25.90
2018-11-20T23:25:23.769Z,23.40
2018-11-20T23:28:11.790Z,24.23
2018-11-20T23:30:59.515Z,24.40
2018-11-20T23:33:47.409Z,23.77
2018-11-20T23:36:35.762Z,22.70
2018-11-20T23:39:23.867Z,22.90
2018-11-20T23:42:11.931Z,23.67
2018-11-20T23:44:59.429Z,22.67
2018-11-20T23:47:47.243Z,22.37
2018-11-20T23:50:34.779Z,21.93
2018-11-20T23:53:22.913Z,23.40
2018-11-20T23:56:10.820Z,22.40
2018-11-20T23:58:58.376Z,24.63
